Time;durP1;ratioP1;P1;durP2;ratioP2;P2;SDS_P1;SDS_P2;PMS_P1;PMS_P2;Temp;Humidity;BMP_temperature;BMP_pressure;BME280_temperature;BME280_humidity;BME280_pressure;Samples;Min_cycle;Max_cycle;Signal;HPM_P1;HPM_P2
2023/03/10 00:00:23;;;;;;;3.78;1.40;;;9.50;82.70;;;;;;5032772;28;20118;-79
2023/03/10 00:02:49;;;;;;;4.85;1.70;;;9.50;82.50;;;;;;5041315;28;20037;-79
2023/03/10 00:05:16;;;;;;;4.03;1.15;;;9.50;82.50;;;;;;5003946;28;20029;-80
2023/03/10 00:07:42;;;;;;;3.90;1.13;;;9.50;82.40;;;;;;5027202;28;20029;-79
2023/03/10 00:10:10;;;;;;;3.20;1.30;;;9.60;82.40;;;;;;5003114;28;20522;-80
2023/03/10 00:12:36;;;;;;;3.53;1.33;;;9.60;82.40;;;;;;5038337;28;20052;-80
2023/03/10 00:15:03;;;;;;;4.18;1.30;;;9.60;82.20;;;;;;5010196;28;20438;-80
2023/03/10 00:17:29;;;;;;;3.50;1.17;;;9.70;82.20;;;;;;5024500;28;20051;-79
2023/03/10 00:19:55;;;;;;;4.53;1.23;;;9.70;82.10;;;;;;5037234;28;20041;-81
2023/03/10 00:22:20;;;;;;;4.63;1.30;;;9.70;82.00;;;;;;5002821;28;20056;-79
2023/03/10 00:24:46;;;;;;;3.95;1.00;;;9.80;82.00;;;;;;5032837;28;20042;-80
2023/03/10 00:27:11;;;;;;;2.10;0.85;;;9.80;82.00;;;;;;5019617;28;20147;-79
2023/03/10 00:29:37;;;;;;;2.33;1.20;;;9.80;81.90;;;;;;5038768;28;20129;-80
2023/03/10 00:32:02;;;;;;;1.55;0.85;;;9.80;81.90;;;;;;5024941;28;20119;-80
2023/03/10 00:34:28;;;;;;;1.98;0.90;;;9.80;81.70;;;;;;5009549;28;20132;-80
2023/03/10 00:36:53;;;;;;;3.05;0.90;;;9.80;81.70;;;;;;5033119;28;20937;-80
2023/03/10 00:39:19;;;;;;;5.00;1.00;;;9.90;81.70;;;;;;5008681;28;21007;-80
2023/03/10 00:41:44;;;;;;;1.83;0.90;;;9.90;81.70;;;;;;5012418;28;20180;-80
2023/03/10 00:44:10;;;;;;;2.25;0.95;;;9.90;81.60;;;;;;5025851;28;20648;-80
2023/03/10 00:46:37;;;;;;;3.72;1.02;;;9.90;81.60;;;;;;4999490;28;20404;-80
2023/03/10 00:49:06;;;;;;;5.63;1.20;;;10.00;81.60;;;;;;5019240;28;20112;-80
2023/03/10 00:51:31;;;;;;;2.58;0.80;;;10.00;81.60;;;;;;5028012;28;20040;-79
2023/03/10 00:53:59;;;;;;;2.17;1.10;;;10.00;81.50;;;;;;5041635;28;20041;-79
2023/03/10 00:56:25;;;;;;;1.80;0.70;;;10.00;81.50;;;;;;5023125;28;20064;-79
2023/03/10 00:58:52;;;;;;;2.55;0.68;;;10.00;81.60;;;;;;5019815;28;20045;-81
2023/03/10 01:01:48;;;;;;;3.05;0.82;;;10.00;81.50;;;;;;5037723;28;20029;-80
2023/03/10 01:04:15;;;;;;;1.85;0.70;;;10.00;81.50;;;;;;5009382;28;20037;-79
2023/03/10 01:06:43;;;;;;;2.65;0.80;;;10.00;81.50;;;;;;5019138;28;20072;-80
2023/03/10 01:09:08;;;;;;;2.78;0.70;;;10.00;81.50;;;;;;5023203;28;20682;-81
2023/03/10 01:11:34;;;;;;;1.75;0.70;;;10.10;81.60;;;;;;5006765;28;20069;-80
2023/03/10 01:14:01;;;;;;;3.13;0.57;;;10.10;81.70;;;;;;5018601;28;20037;-80
2023/03/10 01:16:27;;;;;;;1.13;0.50;;;10.00;81.60;;;;;;4984239;28;20041;-78
2023/03/10 01:18:52;;;;;;;1.58;0.50;;;10.10;81.90;;;;;;5033386;28;20163;-79
2023/03/10 01:21:23;;;;;;;1.95;0.50;;;10.10;81.90;;;;;;5021975;28;20133;-80
2023/03/10 01:23:48;;;;;;;1.40;0.50;;;10.10;82.00;;;;;;5021940;28;20040;-79
2023/03/10 01:26:14;;;;;;;1.30;0.52;;;10.10;81.90;;;;;;5029221;28;20052;-80
2023/03/10 01:28:40;;;;;;;1.08;0.50;;;10.20;82.10;;;;;;5014016;28;20111;-78
2023/03/10 01:31:06;;;;;;;2.00;0.50;;;10.20;82.10;;;;;;5014361;28;20033;-81
2023/03/10 01:33:34;;;;;;;1.67;0.45;;;10.20;82.10;;;;;;5036214;28;20104;-79
2023/03/10 01:35:59;;;;;;;1.02;0.50;;;10.20;82.20;;;;;;5036436;28;20057;-79
2023/03/10 01:38:25;;;;;;;1.85;0.50;;;10.20;82.20;;;;;;5023180;28;20687;-78
2023/03/10 01:40:50;;;;;;;0.98;0.35;;;10.20;82.30;;;;;;5032528;28;20043;-80
2023/03/10 01:43:19;;;;;;;1.10;0.40;;;10.20;82.40;;;;;;5004587;28;20053;-78
2023/03/10 01:45:45;;;;;;;1.85;0.40;;;10.20;82.40;;;;;;5035204;28;20474;-80
2023/03/10 01:48:15;;;;;;;1.77;0.50;;;10.20;82.40;;;;;;5035657;28;20583;-79
2023/03/10 01:50:41;;;;;;;0.40;0.30;;;10.10;82.50;;;;;;5031645;28;20041;-79
2023/03/10 01:53:06;;;;;;;0.30;0.20;;;10.20;82.60;;;;;;5035605;28;20454;-79
2023/03/10 01:55:33;;;;;;;1.63;0.30;;;10.20;82.60;;;;;;5032343;28;20060;-78
2023/03/10 01:57:59;;;;;;;1.88;0.30;;;10.10;82.60;;;;;;5024506;28;20037;-80
2023/03/10 02:00:27;;;;;;;2.47;0.40;;;10.10;82.70;;;;;;5042064;28;20102;-80
2023/03/10 02:03:08;;;;;;;1.13;0.30;;;10.10;82.70;;;;;;5018737;28;20036;-79
2023/03/10 02:05:40;;;;;;;1.23;0.30;;;10.10;82.80;;;;;;5032094;28;20531;-78
2023/03/10 02:08:05;;;;;;;;;;;10.10;82.80;;;;;;5041196;28;20059;-81
2023/03/10 02:10:31;;;;;;;1.45;0.30;;;10.10;83.50;;;;;;5054928;28;19921;-79
2023/03/10 02:12:56;;;;;;;0.73;0.40;;;10.10;82.60;;;;;;5026163;28;20051;-80
2023/03/10 02:15:22;;;;;;;0.30;0.30;;;10.10;82.70;;;;;;5035285;28;20041;-79
2023/03/10 02:17:48;;;;;;;1.92;0.38;;;10.10;82.80;;;;;;5032284;28;20034;-79
2023/03/10 02:20:51;;;;;;;2.70;0.50;;;10.10;82.90;;;;;;5035527;28;20063;-79
2023/03/10 02:23:34;;;;;;;3.05;0.60;;;10.10;83.10;;;;;;5049618;28;20157;-81
2023/03/10 02:26:03;;;;;;;0.38;0.32;;;10.10;82.90;;;;;;5018254;28;20044;-79
2023/03/10 02:28:29;;;;;;;0.43;0.30;;;10.10;82.90;;;;;;4995890;28;20033;-78
2023/03/10 02:30:54;;;;;;;1.08;0.50;;;10.10;83.00;;;;;;5014899;28;20045;-80
2023/03/10 02:33:23;;;;;;;0.45;0.30;;;10.10;83.10;;;;;;4986815;28;20127;-80
2023/03/10 02:35:48;;;;;;;0.98;0.38;;;10.10;83.20;;;;;;5019713;28;20050;-80
2023/03/10 02:38:14;;;;;;;0.60;0.40;;;10.10;83.20;;;;;;5023286;28;20112;-79
2023/03/10 02:40:49;;;;;;;0.98;0.35;;;10.10;83.20;;;;;;5014795;28;20713;-78
2023/03/10 02:43:24;;;;;;;4.32;0.50;;;10.10;83.30;;;;;;5023307;28;20033;-79
2023/03/10 02:45:51;;;;;;;0.20;0.20;;;10.10;83.30;;;;;;5010291;28;20591;-80
2023/03/10 02:48:24;;;;;;;1.08;0.30;;;10.10;83.50;;;;;;5022644;28;20089;-80
2023/03/10 02:50:50;;;;;;;0.63;0.30;;;10.10;83.50;;;;;;4993571;28;20042;-79
2023/03/10 02:53:17;;;;;;;0.30;0.22;;;10.10;83.50;;;;;;5018111;28;20037;-79
2023/03/10 02:55:43;;;;;;;0.85;0.25;;;10.10;83.60;;;;;;5030302;28;20520;-80
2023/03/10 02:58:08;;;;;;;2.83;0.20;;;10.10;83.60;;;;;;4995530;28;20045;-80
2023/03/10 03:00:38;;;;;;;0.63;0.30;;;10.10;83.60;;;;;;4992476;28;20419;-80
2023/03/10 03:03:04;;;;;;;0.57;0.35;;;10.10;83.70;;;;;;5013718;28;20132;-81
2023/03/10 03:05:29;;;;;;;0.15;0.15;;;10.10;83.80;;;;;;4999874;28;20741;-79
2023/03/10 03:07:55;;;;;;;1.67;0.20;;;10.10;83.80;;;;;;4994955;28;20030;-79
2023/03/10 03:10:20;;;;;;;0.25;0.25;;;10.10;83.90;;;;;;4997390;28;20048;-79
2023/03/10 03:12:46;;;;;;;0.32;0.20;;;10.10;84.00;;;;;;5019661;28;20671;-80
2023/03/10 03:15:12;;;;;;;0.40;0.10;;;10.10;84.00;;;;;;5033996;28;20167;-79
2023/03/10 03:17:37;;;;;;;0.43;0.25;;;10.10;84.00;;;;;;5010387;28;20044;-80
2023/03/10 03:20:13;;;;;;;0.30;0.13;;;10.20;84.20;;;;;;5013470;28;20034;-78
2023/03/10 03:22:44;;;;;;;0.20;0.20;;;10.10;84.30;;;;;;5030405;28;20038;-79
2023/03/10 03:25:11;;;;;;;0.75;0.30;;;10.20;84.40;;;;;;5038011;28;20041;-79
2023/03/10 03:27:37;;;;;;;0.57;0.20;;;10.10;84.30;;;;;;5003260;28;20038;-80
2023/03/10 03:30:04;;;;;;;3.53;0.30;;;10.10;84.30;;;;;;5018905;28;20043;-78
2023/03/10 03:32:30;;;;;;;0.30;0.20;;;10.20;84.40;;;;;;5022885;28;20054;-80
2023/03/10 03:34:55;;;;;;;1.02;0.17;;;10.10;84.40;;;;;;5021865;28;20128;-79
2023/03/10 03:37:21;;;;;;;0.30;0.20;;;10.10;84.50;;;;;;5012253;28;20033;-79
2023/03/10 03:39:46;;;;;;;0.20;0.10;;;10.10;84.50;;;;;;5017808;28;20124;-81
2023/03/10 03:42:12;;;;;;;0.47;0.35;;;10.10;84.50;;;;;;5032059;28;20127;-80
2023/03/10 03:44:37;;;;;;;0.30;0.30;;;10.10;84.50;;;;;;5035599;28;20125;-81
2023/03/10 03:47:04;;;;;;;1.35;0.40;;;10.10;84.60;;;;;;5025116;28;20029;-80
2023/03/10 03:49:29;;;;;;;0.28;0.20;;;10.10;84.60;;;;;;5037335;28;20079;-80
2023/03/10 03:51:55;;;;;;;0.60;0.10;;;10.20;84.70;;;;;;5015221;28;20029;-79
2023/03/10 03:54:20;;;;;;;0.55;0.30;;;10.10;84.80;;;;;;5035255;28;20063;-79
2023/03/10 03:56:46;;;;;;;1.13;0.32;;;10.10;84.80;;;;;;5033921;28;20100;-80
2023/03/10 03:59:11;;;;;;;1.55;0.30;;;10.10;84.80;;;;;;5017842;28;20400;-79
2023/03/10 04:01:37;;;;;;;1.35;0.40;;;10.10;84.90;;;;;;5004642;28;20052;-78
2023/03/10 04:04:02;;;;;;;12.63;7.28;;;10.10;85.00;;;;;;5038179;28;20029;-79
2023/03/10 04:06:28;;;;;;;3.65;2.33;;;10.10;85.00;;;;;;5038680;28;20293;-77
2023/03/10 04:08:54;;;;;;;7.03;5.30;;;10.10;85.00;;;;;;5023830;28;20144;-79
2023/03/10 04:11:19;;;;;;;72.07;34.47;;;10.10;85.10;;;;;;5037184;28;20093;-80
2023/03/10 04:13:45;;;;;;;6.95;3.20;;;10.10;85.10;;;;;;5035733;28;20025;-79
2023/03/10 04:16:11;;;;;;;17.17;7.32;;;10.10;85.10;;;;;;5042722;28;20044;-79
2023/03/10 04:18:36;;;;;;;10.02;4.78;;;10.10;85.10;;;;;;4991824;28;20037;-79
2023/03/10 04:21:02;;;;;;;38.20;16.08;;;10.10;85.20;;;;;;5017477;28;20052;-80
2023/03/10 04:23:28;;;;;;;6.22;3.75;;;10.10;85.10;;;;;;5009342;28;20585;-79
2023/03/10 04:25:53;;;;;;;6.95;2.88;;;10.10;85.20;;;;;;5016318;28;20131;-79
2023/03/10 04:28:19;;;;;;;9.77;6.40;;;10.10;85.20;;;;;;4986055;28;20109;-80
2023/03/10 04:30:46;;;;;;;6.97;3.55;;;10.10;85.30;;;;;;5013981;28;20038;-80
2023/03/10 04:33:12;;;;;;;2.58;1.42;;;10.10;85.40;;;;;;4999970;28;20033;-80
2023/03/10 04:35:42;;;;;;;6.35;3.08;;;10.10;85.40;;;;;;5032921;28;20043;-78
2023/03/10 04:38:08;;;;;;;1.30;1.20;;;10.10;85.50;;;;;;5029088;28;20037;-79
2023/03/10 04:40:34;;;;;;;2.15;1.15;;;10.10;85.40;;;;;;5043243;28;20064;-78
2023/03/10 04:42:59;;;;;;;2.55;1.70;;;10.10;85.40;;;;;;5022205;28;20091;-79
2023/03/10 04:45:25;;;;;;;5.22;4.70;;;10.10;85.50;;;;;;5004784;28;20112;-79
2023/03/10 04:47:50;;;;;;;3.78;2.97;;;10.10;85.50;;;;;;5034353;28;20071;-79
2023/03/10 04:50:16;;;;;;;1.92;1.20;;;10.10;85.50;;;;;;5007163;28;20038;-78
2023/03/10 04:52:45;;;;;;;2.47;1.27;;;10.10;85.60;;;;;;5051482;28;20110;-80
2023/03/10 04:55:11;;;;;;;1.20;0.80;;;10.00;85.50;;;;;;5022677;28;20747;-78
2023/03/10 04:57:37;;;;;;;0.85;0.80;;;10.00;85.50;;;;;;5035317;28;20665;-81
2023/03/10 05:00:06;;;;;;;1.55;0.70;;;10.00;85.60;;;;;;5035121;28;20041;-79
2023/03/10 05:02:32;;;;;;;0.90;0.40;;;10.00;85.70;;;;;;5019375;28;20116;-78
2023/03/10 05:04:58;;;;;;;0.85;0.45;;;10.00;85.60;;;;;;5036865;28;20121;-80
2023/03/10 05:07:23;;;;;;;0.63;0.60;;;10.00;85.70;;;;;;5020036;28;20041;-80
2023/03/10 05:09:49;;;;;;;1.85;0.75;;;10.00;85.70;;;;;;5030437;28;20141;-78
2023/03/10 05:12:14;;;;;;;1.15;0.55;;;10.00;85.70;;;;;;5042434;28;20258;-79
2023/03/10 05:14:40;;;;;;;0.70;0.50;;;10.00;85.70;;;;;;5042305;28;20056;-80
2023/03/10 05:17:05;;;;;;;0.73;0.52;;;10.00;85.80;;;;;;5026713;28;21036;-79
2023/03/10 05:19:33;;;;;;;0.75;0.50;;;10.00;85.70;;;;;;5038631;28;20579;-79
2023/03/10 05:21:58;;;;;;;3.28;0.60;;;10.00;85.80;;;;;;5024142;28;20772;-81
2023/03/10 05:24:24;;;;;;;2.30;0.60;;;10.00;85.70;;;;;;5045318;28;20041;-78
2023/03/10 05:26:49;;;;;;;1.08;0.70;;;10.00;85.70;;;;;;5019193;28;20033;-79
2023/03/10 05:29:15;;;;;;;1.88;0.90;;;10.00;85.60;;;;;;5024099;28;20779;-80
2023/03/10 05:31:41;;;;;;;2.95;1.02;;;10.00;85.70;;;;;;5023072;28;20067;-79
2023/03/10 05:34:06;;;;;;;1.60;0.80;;;10.00;85.60;;;;;;5023805;28;20124;-80
2023/03/10 05:36:32;;;;;;;1.15;0.90;;;10.00;85.60;;;;;;5032083;28;20063;-81
2023/03/10 05:38:57;;;;;;;1.38;0.60;;;10.00;85.70;;;;;;5043157;28;20029;-80
2023/03/10 05:41:23;;;;;;;1.42;0.60;;;10.00;85.60;;;;;;5006052;28;20048;-79
2023/03/10 05:43:48;;;;;;;1.23;0.47;;;10.00;85.50;;;;;;5032808;28;20041;-80
2023/03/10 05:46:14;;;;;;;0.52;0.30;;;10.00;85.60;;;;;;5021285;28;20440;-79
2023/03/10 05:48:39;;;;;;;2.35;0.50;;;10.00;85.60;;;;;;5027844;28;20560;-80
2023/03/10 05:51:07;;;;;;;1.38;0.57;;;10.00;85.60;;;;;;5057447;28;22083;-79
2023/03/10 05:53:32;;;;;;;3.55;0.57;;;10.00;85.60;;;;;;5009273;28;20120;-79
2023/03/10 05:55:58;;;;;;;2.05;0.90;;;10.00;85.60;;;;;;5021302;28;20139;-78
2023/03/10 05:58:24;;;;;;;1.05;0.60;;;10.00;85.50;;;;;;4986165;28;20726;-78
2023/03/10 06:00:49;;;;;;;2.65;0.80;;;10.00;85.60;;;;;;5019750;28;20056;-78
2023/03/10 06:03:15;;;;;;;2.25;0.80;;;10.00;85.50;;;;;;5026501;28;20825;-79
2023/03/10 06:05:41;;;;;;;1.83;1.10;;;10.00;85.50;;;;;;5017421;28;20083;-80
2023/03/10 06:08:06;;;;;;;4.25;0.82;;;10.00;85.50;;;;;;5034960;28;20037;-80
2023/03/10 06:10:32;;;;;;;1.00;0.80;;;10.00;85.50;;;;;;5008442;28;20037;-78
2023/03/10 06:12:57;;;;;;;1.90;0.73;;;10.00;85.50;;;;;;5018037;28;20041;-79
2023/03/10 06:15:23;;;;;;;2.63;0.88;;;10.00;85.40;;;;;;5007438;28;20037;-78
2023/03/10 06:17:49;;;;;;;0.80;0.40;;;10.00;85.50;;;;;;5003112;28;20041;-77
2023/03/10 06:20:14;;;;;;;0.82;0.43;;;10.00;85.60;;;;;;5023016;28;20033;-78
2023/03/10 06:22:40;;;;;;;1.08;0.60;;;10.00;85.60;;;;;;5004432;28;20033;-79
2023/03/10 06:25:06;;;;;;;4.63;0.60;;;10.00;85.60;;;;;;4999797;28;20037;-78
2023/03/10 06:27:31;;;;;;;1.50;0.77;;;9.90;85.60;;;;;;5034273;28;20040;-79
2023/03/10 06:29:57;;;;;;;0.75;0.50;;;9.90;85.60;;;;;;5004495;28;20075;-80
2023/03/10 06:32:23;;;;;;;2.85;0.60;;;9.90;85.60;;;;;;5006591;28;20056;-78
2023/03/10 06:34:48;;;;;;;1.50;0.43;;;9.90;85.60;;;;;;5034357;28;20086;-80
2023/03/10 06:37:14;;;;;;;2.85;0.80;;;9.90;85.60;;;;;;5033056;28;20040;-80
2023/03/10 06:39:39;;;;;;;2.50;0.50;;;9.90;85.60;;;;;;5019982;28;20870;-80
2023/03/10 06:42:07;;;;;;;2.65;0.82;;;9.90;85.60;;;;;;5019171;28;20168;-79
2023/03/10 06:44:33;;;;;;;2.58;1.10;;;9.90;85.60;;;;;;5029829;28;20033;-77
2023/03/10 06:46:59;;;;;;;3.92;1.38;;;9.90;85.60;;;;;;5034105;28;20051;-79
2023/03/10 06:49:29;;;;;;;6.40;2.03;;;9.90;85.60;;;;;;5038364;28;20035;-79
2023/03/10 06:51:54;;;;;;;5.28;1.15;;;9.90;85.60;;;;;;5017252;28;20411;-80
2023/03/10 06:54:21;;;;;;;2.83;0.93;;;9.90;85.60;;;;;;5020020;28;20030;-80
2023/03/10 06:56:47;;;;;;;3.30;0.70;;;10.00;85.70;;;;;;5027465;28;20037;-79
2023/03/10 06:59:13;;;;;;;3.55;2.13;;;9.90;85.70;;;;;;5024972;28;20465;-79
2023/03/10 07:01:38;;;;;;;3.90;1.50;;;10.00;85.70;;;;;;5029287;28;20491;-79
2023/03/10 07:04:04;;;;;;;5.18;0.80;;;10.00;85.70;;;;;;5023349;28;20040;-79
2023/03/10 07:06:29;;;;;;;2.60;0.68;;;10.00;85.70;;;;;;5019575;28;20032;-79
2023/03/10 07:08:55;;;;;;;2.53;0.60;;;10.00;85.60;;;;;;5030191;28;20032;-79
2023/03/10 07:11:22;;;;;;;3.88;0.70;;;10.10;85.70;;;;;;5021939;28;20037;-80
2023/03/10 07:13:48;;;;;;;2.28;0.50;;;10.10;85.60;;;;;;5002107;28;20055;-77
2023/03/10 07:16:13;;;;;;;2.33;0.70;;;10.10;85.60;;;;;;5022059;28;20029;-79
2023/03/10 07:18:39;;;;;;;3.00;0.63;;;10.10;85.60;;;;;;5004036;28;20025;-78
2023/03/10 07:21:08;;;;;;;1.77;0.73;;;10.10;85.60;;;;;;5017557;28;20041;-80
2023/03/10 07:23:34;;;;;;;1.33;0.40;;;10.10;85.60;;;;;;5007417;28;20041;-79
2023/03/10 07:25:59;;;;;;;1.35;0.65;;;10.10;85.60;;;;;;4995283;28;21180;-78
2023/03/10 07:28:25;;;;;;;3.38;0.70;;;10.10;85.60;;;;;;5017996;28;20083;-79
2023/03/10 07:30:51;;;;;;;2.88;0.90;;;10.10;85.60;;;;;;5021753;28;20084;-80
2023/03/10 07:33:16;;;;;;;2.38;0.80;;;10.20;85.60;;;;;;5038991;28;20037;-80
2023/03/10 07:35:42;;;;;;;2.58;0.70;;;10.20;85.60;;;;;;4984719;28;20044;-79
2023/03/10 07:38:08;;;;;;;1.13;0.70;;;10.20;85.70;;;;;;5015752;28;20064;-79
2023/03/10 07:40:34;;;;;;;5.85;1.50;;;10.20;85.70;;;;;;5021691;28;20153;-78
2023/03/10 07:42:59;;;;;;;6.80;2.92;;;10.20;85.60;;;;;;5028940;28;20045;-79
2023/03/10 07:45:25;;;;;;;12.60;6.55;;;10.20;85.70;;;;;;5004183;28;20566;-79
2023/03/10 07:47:51;;;;;;;5.07;3.00;;;10.30;85.70;;;;;;4998889;28;20044;-79
2023/03/10 07:50:17;;;;;;;3.97;1.02;;;10.30;85.70;;;;;;5025790;28;20446;-80
2023/03/10 07:52:43;;;;;;;2.63;1.13;;;10.30;85.70;;;;;;5038037;28;20033;-78
2023/03/10 07:55:08;;;;;;;2.45;1.48;;;10.40;85.70;;;;;;5025083;28;20041;-79
2023/03/10 07:57:34;;;;;;;2.88;0.82;;;10.40;85.60;;;;;;5014748;28;20051;-79
2023/03/10 07:59:59;;;;;;;2.78;1.30;;;10.50;85.70;;;;;;5017893;28;20039;-79
2023/03/10 08:02:25;;;;;;;1.52;0.95;;;10.50;85.60;;;;;;5033378;28;20060;-77
2023/03/10 08:04:51;;;;;;;2.75;0.90;;;10.50;85.60;;;;;;4986301;28;20029;-80
2023/03/10 08:07:17;;;;;;;2.08;0.82;;;10.60;85.60;;;;;;5003558;28;20236;-79
2023/03/10 08:09:48;;;;;;;1.73;0.68;;;10.60;85.50;;;;;;5012529;28;20037;-80
2023/03/10 08:12:14;;;;;;;1.75;0.82;;;10.70;85.50;;;;;;5005612;28;20041;-79
2023/03/10 08:14:39;;;;;;;2.38;0.82;;;10.70;85.40;;;;;;5047107;28;20041;-78
2023/03/10 08:17:05;;;;;;;2.05;0.60;;;10.70;85.30;;;;;;5023249;28;20218;-78
2023/03/10 08:19:30;;;;;;;3.42;0.90;;;10.80;85.20;;;;;;5057136;28;20041;-79
2023/03/10 08:21:56;;;;;;;3.70;0.80;;;10.80;85.10;;;;;;5020572;28;20029;-78
2023/03/10 08:24:23;;;;;;;2.78;0.65;;;10.80;85.00;;;;;;5008408;28;20052;-80
2023/03/10 08:26:48;;;;;;;3.10;1.15;;;10.80;84.90;;;;;;5020915;28;20075;-78
2023/03/10 08:29:14;;;;;;;2.95;1.00;;;10.90;85.20;;;;;;5056315;28;20032;-80
2023/03/10 08:31:39;;;;;;;2.67;0.90;;;10.90;84.80;;;;;;5025052;28;20024;-79
2023/03/10 08:34:05;;;;;;;2.25;1.25;;;11.00;84.80;;;;;;5037493;28;20112;-78
2023/03/10 08:36:30;;;;;;;3.40;0.77;;;11.00;84.60;;;;;;5008378;28;20045;-79
2023/03/10 08:38:56;;;;;;;2.55;1.17;;;11.00;84.50;;;;;;5028996;28;20051;-78
2023/03/10 08:41:24;;;;;;;2.33;0.85;;;11.10;84.40;;;;;;5014354;28;20045;-79
2023/03/10 08:43:50;;;;;;;2.40;0.68;;;11.20;84.40;;;;;;5027743;28;20122;-79
2023/03/10 08:46:17;;;;;;;4.30;1.48;;;11.20;84.20;;;;;;5038184;28;20062;-79
2023/03/10 08:48:42;;;;;;;4.45;1.58;;;11.20;84.10;;;;;;5042732;28;20111;-79
2023/03/10 08:51:08;;;;;;;1.80;0.88;;;11.30;84.40;;;;;;5040924;28;20094;-78
2023/03/10 08:53:34;;;;;;;3.58;0.88;;;11.30;83.90;;;;;;5040944;28;20089;-80
2023/03/10 08:56:00;;;;;;;1.15;0.70;;;11.30;83.80;;;;;;5024775;28;20037;-79
2023/03/10 08:58:25;;;;;;;2.90;1.00;;;11.30;83.70;;;;;;5033803;28;20041;-79
2023/03/10 09:00:51;;;;;;;3.10;1.00;;;11.30;83.70;;;;;;5024611;28;20045;-81
2023/03/10 09:03:16;;;;;;;3.17;1.73;;;11.30;83.70;;;;;;5025814;28;20047;-80
2023/03/10 09:05:42;;;;;;;3.60;0.98;;;11.30;83.80;;;;;;5030244;28;20036;-80
2023/03/10 09:08:08;;;;;;;1.70;0.90;;;11.40;83.80;;;;;;5038415;28;20044;-79
2023/03/10 09:10:34;;;;;;;4.18;1.52;;;11.40;83.70;;;;;;5037472;28;20054;-79
2023/03/10 09:13:00;;;;;;;3.42;1.38;;;11.40;83.70;;;;;;5032094;28;20499;-78
2023/03/10 09:15:25;;;;;;;4.10;1.40;;;11.40;83.80;;;;;;5028019;28;20047;-79
2023/03/10 09:17:51;;;;;;;3.35;1.50;;;11.50;83.80;;;;;;5026198;28;20036;-78
2023/03/10 09:20:24;;;;;;;4.63;1.50;;;11.60;83.70;;;;;;5034636;28;20036;-78
2023/03/10 09:22:53;;;;;;;0.82;0.60;;;11.60;83.60;;;;;;5013036;28;20037;-81
2023/03/10 09:25:19;;;;;;;4.10;0.75;;;11.60;83.40;;;;;;5042712;28;20036;-80
2023/03/10 09:27:44;;;;;;;3.75;0.90;;;11.60;83.20;;;;;;5024444;28;20044;-78
2023/03/10 09:30:10;;;;;;;2.92;0.90;;;11.60;83.10;;;;;;5055189;28;20595;-78
2023/03/10 09:32:36;;;;;;;3.28;0.90;;;11.60;83.10;;;;;;5013028;28;20196;-80
2023/03/10 09:35:01;;;;;;;3.35;1.08;;;11.60;82.90;;;;;;5041991;28;20068;-80
2023/03/10 09:37:27;;;;;;;1.95;1.10;;;11.60;82.80;;;;;;5040488;28;20041;-79
2023/03/10 09:39:53;;;;;;;1.70;1.10;;;11.60;82.70;;;;;;5040160;28;20077;-79
2023/03/10 09:42:33;;;;;;;2.13;1.15;;;11.60;82.60;;;;;;5035833;28;20129;-80
2023/03/10 09:45:08;;;;;;;3.10;1.80;;;11.60;82.40;;;;;;5020162;28;20045;-80
2023/03/10 09:48:02;;;;;;;2.40;0.80;;;11.60;82.40;;;;;;5036135;28;20400;-79
2023/03/10 09:50:34;;;;;;;4.70;2.22;;;11.60;82.10;;;;;;5037420;28;20407;-81
2023/03/10 09:53:18;;;;;;;4.25;2.30;;;11.60;82.10;;;;;;5004171;28;20727;-80
2023/03/10 09:55:44;;;;;;;1.13;0.68;;;11.60;82.10;;;;;;5034998;28;20032;-78
2023/03/10 09:58:13;;;;;;;6.68;2.53;;;11.50;82.00;;;;;;5029663;28;20124;-80
2023/03/10 10:00:40;;;;;;;2.13;0.55;;;11.40;81.90;;;;;;4988738;28;20033;-78
2023/03/10 10:03:13;;;;;;;3.78;2.03;;;11.40;82.00;;;;;;5034255;28;20039;-80
2023/03/10 10:05:38;;;;;;;1.63;1.00;;;11.30;82.20;;;;;;5053564;28;20123;-78
2023/03/10 10:08:10;;;;;;;1.75;1.02;;;11.30;82.40;;;;;;5024035;28;20237;-78
2023/03/10 10:10:36;;;;;;;2.67;1.50;;;11.30;82.50;;;;;;5006942;28;20621;-79
2023/03/10 10:13:10;;;;;;;1.50;0.90;;;11.20;82.60;;;;;;5021339;28;20120;-80
2023/03/10 10:15:36;;;;;;;0.85;0.68;;;11.20;82.80;;;;;;5011000;28;20044;-77
2023/03/10 10:18:07;;;;;;;1.67;0.38;;;11.20;82.90;;;;;;5018600;28;20033;-80
2023/03/10 10:20:39;;;;;;;1.90;0.70;;;11.20;83.00;;;;;;5029933;28;20042;-79
2023/03/10 10:23:11;;;;;;;4.55;1.45;;;11.20;83.20;;;;;;5027022;28;20040;-79
2023/03/10 10:25:37;;;;;;;2.78;1.40;;;11.20;83.20;;;;;;5009046;28;20061;-78
2023/03/10 10:28:03;;;;;;;2.42;0.60;;;11.20;83.20;;;;;;5006688;28;20065;-78
2023/03/10 10:30:34;;;;;;;2.28;0.82;;;11.30;83.40;;;;;;5015949;28;20040;-80
2023/03/10 10:33:01;;;;;;;1.87;0.50;;;11.40;83.50;;;;;;5018681;28;20228;-79
2023/03/10 10:35:29;;;;;;;1.58;0.80;;;11.50;83.40;;;;;;5014087;28;20323;-78
2023/03/10 10:38:04;;;;;;;2.10;0.70;;;11.70;83.50;;;;;;5005965;28;20045;-79
2023/03/10 10:40:35;;;;;;;2.92;0.75;;;11.90;83.40;;;;;;5036563;28;20662;-80
2023/03/10 10:43:04;;;;;;;1.58;0.50;;;12.00;83.10;;;;;;5002954;28;20049;-79
2023/03/10 10:45:35;;;;;;;5.22;0.70;;;12.10;83.60;;;;;;5006829;28;20468;-80
2023/03/10 10:48:00;;;;;;;3.65;0.63;;;12.20;82.50;;;;;;5022446;28;20044;-79
2023/03/10 10:50:30;;;;;;;2.95;0.55;;;12.20;82.10;;;;;;5023569;28;20041;-79
2023/03/10 10:53:15;;;;;;;2.47;0.57;;;12.20;81.80;;;;;;5009315;28;20040;-79
2023/03/10 10:55:42;;;;;;;2.72;0.98;;;12.10;81.10;;;;;;5003769;28;20510;-80
2023/03/10 10:58:37;;;;;;;3.38;0.60;;;12.10;81.30;;;;;;5001609;28;20041;-80
2023/03/10 11:01:11;;;;;;;2.22;0.47;;;12.10;80.90;;;;;;5013659;28;20044;-78
2023/03/10 11:03:43;;;;;;;1.70;0.47;;;12.10;81.10;;;;;;4990656;28;20041;-79
2023/03/10 11:06:36;;;;;;;2.03;0.47;;;12.00;81.10;;;;;;5007492;28;20072;-79
2023/03/10 11:09:32;;;;;;;2.88;0.40;;;12.00;81.10;;;;;;5040692;28;20028;-78
2023/03/10 11:12:19;;;;;;;6.32;1.92;;;11.90;81.10;;;;;;5017422;28;20089;-80
2023/03/10 11:14:44;;;;;;;2.50;0.47;;;11.80;81.10;;;;;;5017380;28;20064;-80
2023/03/10 11:17:41;;;;;;;4.95;1.50;;;11.80;81.20;;;;;;5051149;28;20052;-78
2023/03/10 11:20:07;;;;;;;3.25;1.10;;;11.70;81.30;;;;;;5050637;28;20033;-80
2023/03/10 11:22:35;;;;;;;3.50;0.80;;;11.60;81.40;;;;;;5053037;28;20028;-80
2023/03/10 11:25:31;;;;;;;2.28;1.10;;;11.50;81.60;;;;;;5021148;28;20842;-78
2023/03/10 11:28:15;;;;;;;9.30;4.22;;;11.50;81.90;;;;;;4979074;28;20034;-81
2023/03/10 11:30:46;;;;;;;6.18;2.28;;;11.50;82.20;;;;;;5029384;28;20041;-80
2023/03/10 11:33:29;;;;;;;2.45;0.65;;;11.50;82.20;;;;;;4993177;28;20047;-78
2023/03/10 11:36:23;;;;;;;6.00;1.58;;;11.50;82.40;;;;;;5018257;28;20044;-78
2023/03/10 11:38:49;;;;;;;3.53;1.75;;;11.50;82.60;;;;;;5027359;28;20044;-76
2023/03/10 11:41:25;;;;;;;5.47;2.58;;;11.60;82.60;;;;;;5010008;28;20040;-79
2023/03/10 11:43:56;;;;;;;3.15;0.82;;;11.60;82.80;;;;;;5012098;28;20057;-78
2023/03/10 11:46:34;;;;;;;2.95;1.45;;;11.60;82.70;;;;;;5044261;28;20764;-79
2023/03/10 11:49:06;;;;;;;2.97;1.02;;;11.60;82.60;;;;;;4985233;28;20707;-80
2023/03/10 11:51:55;;;;;;;2.78;1.52;;;11.60;82.80;;;;;;5001338;28;20043;-80
2023/03/10 11:54:32;;;;;;;2.70;1.00;;;11.60;82.90;;;;;;5029830;28;20744;-80
2023/03/10 11:56:59;;;;;;;3.10;1.25;;;11.60;82.80;;;;;;5028710;28;20323;-80
2023/03/10 11:59:25;;;;;;;2.42;0.70;;;11.60;82.80;;;;;;5026937;28;20618;-80
2023/03/10 12:01:59;;;;;;;3.20;0.70;;;11.50;82.80;;;;;;5010506;28;20036;-80
2023/03/10 12:04:48;;;;;;;1.23;0.55;;;11.60;83.00;;;;;;5024095;28;20025;-79
2023/03/10 12:07:24;;;;;;;0.60;0.40;;;11.60;83.10;;;;;;5040746;28;20060;-78
2023/03/10 12:09:53;;;;;;;3.60;0.88;;;11.50;83.00;;;;;;5025357;28;20049;-77
2023/03/10 12:12:33;;;;;;;2.42;0.70;;;11.60;83.10;;;;;;5039351;28;20088;-79
2023/03/10 12:15:00;;;;;;;2.42;0.80;;;11.60;83.20;;;;;;5035856;28;20052;-78
2023/03/10 12:17:25;;;;;;;1.40;0.50;;;11.60;83.20;;;;;;5013765;28;20048;-78
2023/03/10 12:20:12;;;;;;;1.52;0.70;;;11.60;83.20;;;;;;5007185;28;20466;-79
2023/03/10 12:22:41;;;;;;;13.90;4.78;;;11.60;84.20;;;;;;5044168;28;20116;-80
2023/03/10 12:25:25;;;;;;;4.75;2.10;;;11.50;83.20;;;;;;5030994;28;20112;-79
2023/03/10 12:28:12;;;;;;;7.03;1.70;;;11.50;83.40;;;;;;5025013;28;20037;-77
2023/03/10 12:30:47;;;;;;;1.88;0.85;;;11.50;83.30;;;;;;5042457;28;20493;-80
2023/03/10 12:33:36;;;;;;;3.78;0.98;;;11.40;83.10;;;;;;5040302;28;20045;-79
2023/03/10 12:36:22;;;;;;;1.70;0.60;;;11.30;82.90;;;;;;5038018;28;20050;-79
2023/03/10 12:38:53;;;;;;;1.55;0.50;;;11.20;82.90;;;;;;5023707;28;20033;-79
2023/03/10 12:41:24;;;;;;;;;;;11.10;82.90;;;;;;5054669;28;20058;-79
2023/03/10 12:43:53;;;;;;;3.10;1.85;;;11.10;83.00;;;;;;5043724;28;19989;-79
2023/03/10 12:46:22;;;;;;;4.90;3.00;;;11.00;83.00;;;;;;5026414;28;20044;-79
2023/03/10 12:48:52;;;;;;;1.15;0.63;;;10.90;83.10;;;;;;5002568;28;20056;-79
2023/03/10 12:51:20;;;;;;;3.05;1.52;;;10.90;83.30;;;;;;5025278;28;20055;-79
2023/03/10 12:54:13;;;;;;;4.50;3.05;;;10.90;83.40;;;;;;5016553;28;20173;-79